sensor_id;sensor_type;location;lat;lon;timestamp;temperature;humidity
420;DHT22;42600;54.408;13.016;2022-10-17T00:00:54;10.90;92.70
420;DHT22;42600;54.408;13.016;2022-10-17T00:03:21;10.90;92.70
420;DHT22;42600;54.408;13.016;2022-10-17T00:05:48;10.80;92.70
420;DHT22;42600;54.408;13.016;2022-10-17T00:08:16;10.80;92.70
420;DHT22;42600;54.408;13.016;2022-10-17T00:10:43;10.70;92.70
420;DHT22;42600;54.408;13.016;2022-10-17T00:13:11;10.70;92.70
420;DHT22;42600;54.408;13.016;2022-10-17T00:15:37;10.60;92.70
420;DHT22;42600;54.408;13.016;2022-10-17T00:18:08;10.50;92.70
420;DHT22;42600;54.408;13.016;2022-10-17T00:20:34;10.40;92.70
420;DHT22;42600;54.408;13.016;2022-10-17T00:23:02;10.40;92.70
420;DHT22;42600;54.408;13.016;2022-10-17T00:25:29;10.40;92.70
420;DHT22;42600;54.408;13.016;2022-10-17T00:27:55;10.40;92.70
420;DHT22;42600;54.408;13.016;2022-10-17T00:30:22;10.60;92.70
420;DHT22;42600;54.408;13.016;2022-10-17T00:32:48;10.70;92.70
420;DHT22;42600;54.408;13.016;2022-10-17T00:35:15;10.70;92.70
420;DHT22;42600;54.408;13.016;2022-10-17T00:37:42;10.80;92.70
420;DHT22;42600;54.408;13.016;2022-10-17T00:40:10;10.80;92.70
420;DHT22;42600;54.408;13.016;2022-10-17T00:42:37;10.80;92.70
420;DHT22;42600;54.408;13.016;2022-10-17T00:45:15;10.80;92.70
420;DHT22;42600;54.408;13.016;2022-10-17T00:47:43;10.70;92.70
420;DHT22;42600;54.408;13.016;2022-10-17T00:50:11;10.80;92.70
420;DHT22;42600;54.408;13.016;2022-10-17T00:52:38;10.80;92.70
420;DHT22;42600;54.408;13.016;2022-10-17T00:55:12;10.80;92.70
420;DHT22;42600;54.408;13.016;2022-10-17T00:57:39;10.80;92.70
420;DHT22;42600;54.408;13.016;2022-10-17T01:00:09;10.90;92.70
420;DHT22;42600;54.408;13.016;2022-10-17T01:02:37;10.90;92.70
420;DHT22;42600;54.408;13.016;2022-10-17T01:05:04;11.00;92.70
420;DHT22;42600;54.408;13.016;2022-10-17T01:07:31;11.00;92.70
420;DHT22;42600;54.408;13.016;2022-10-17T01:09:58;11.10;92.70
420;DHT22;42600;54.408;13.016;2022-10-17T01:12:30;11.10;92.70
420;DHT22;42600;54.408;13.016;2022-10-17T01:15:08;11.00;92.70
420;DHT22;42600;54.408;13.016;2022-10-17T01:17:47;11.00;92.70
420;DHT22;42600;54.408;13.016;2022-10-17T01:20:35;10.90;92.70
420;DHT22;42600;54.408;13.016;2022-10-17T01:23:23;10.80;92.70
420;DHT22;42600;54.408;13.016;2022-10-17T01:25:54;10.70;92.70
420;DHT22;42600;54.408;13.016;2022-10-17T01:28:41;10.60;92.70
420;DHT22;42600;54.408;13.016;2022-10-17T01:31:13;10.60;92.70
420;DHT22;42600;54.408;13.016;2022-10-17T01:33:52;10.50;92.70
420;DHT22;42600;54.408;13.016;2022-10-17T01:36:34;10.50;92.70
420;DHT22;42600;54.408;13.016;2022-10-17T01:39:05;10.50;92.70
420;DHT22;42600;54.408;13.016;2022-10-17T01:41:38;10.40;92.70
420;DHT22;42600;54.408;13.016;2022-10-17T01:44:10;10.40;92.70
420;DHT22;42600;54.408;13.016;2022-10-17T01:46:40;10.30;92.70
420;DHT22;42600;54.408;13.016;2022-10-17T01:49:10;10.30;92.70
420;DHT22;42600;54.408;13.016;2022-10-17T01:51:41;10.30;92.70
420;DHT22;42600;54.408;13.016;2022-10-17T01:54:12;10.40;92.70
420;DHT22;42600;54.408;13.016;2022-10-17T01:56:41;10.40;92.70
420;DHT22;42600;54.408;13.016;2022-10-17T01:59:11;10.40;92.70
420;DHT22;42600;54.408;13.016;2022-10-17T02:01:41;10.30;92.70
420;DHT22;42600;54.408;13.016;2022-10-17T02:04:10;10.30;92.70
420;DHT22;42600;54.408;13.016;2022-10-17T02:06:37;10.30;92.70
420;DHT22;42600;54.408;13.016;2022-10-17T02:09:19;10.30;92.70
420;DHT22;42600;54.408;13.016;2022-10-17T02:12:07;10.40;92.70
420;DHT22;42600;54.408;13.016;2022-10-17T02:14:46;10.40;92.70
420;DHT22;42600;54.408;13.016;2022-10-17T02:17:21;10.30;92.70
420;DHT22;42600;54.408;13.016;2022-10-17T02:19:57;10.40;92.70
420;DHT22;42600;54.408;13.016;2022-10-17T02:22:33;10.40;92.70
420;DHT22;42600;54.408;13.016;2022-10-17T02:25:07;10.50;92.70
420;DHT22;42600;54.408;13.016;2022-10-17T02:27:42;10.50;92.70
420;DHT22;42600;54.408;13.016;2022-10-17T02:30:13;10.50;92.70
420;DHT22;42600;54.408;13.016;2022-10-17T02:32:45;10.50;92.70
420;DHT22;42600;54.408;13.016;2022-10-17T02:35:16;10.60;92.70
420;DHT22;42600;54.408;13.016;2022-10-17T02:37:43;10.60;92.70
420;DHT22;42600;54.408;13.016;2022-10-17T02:40:12;10.60;92.70
420;DHT22;42600;54.408;13.016;2022-10-17T02:42:42;10.60;92.70
420;DHT22;42600;54.408;13.016;2022-10-17T02:45:10;10.60;92.70
420;DHT22;42600;54.408;13.016;2022-10-17T02:47:47;10.60;92.70
420;DHT22;42600;54.408;13.016;2022-10-17T02:50:16;10.60;92.70
420;DHT22;42600;54.408;13.016;2022-10-17T02:52:47;10.70;92.70
420;DHT22;42600;54.408;13.016;2022-10-17T02:55:18;10.70;92.70
420;DHT22;42600;54.408;13.016;2022-10-17T02:57:47;10.70;92.70
420;DHT22;42600;54.408;13.016;2022-10-17T03:00:17;10.70;92.70
420;DHT22;42600;54.408;13.016;2022-10-17T03:02:47;10.70;92.70
420;DHT22;42600;54.408;13.016;2022-10-17T03:05:17;10.80;92.70
420;DHT22;42600;54.408;13.016;2022-10-17T03:07:44;10.80;92.70
420;DHT22;42600;54.408;13.016;2022-10-17T03:10:11;10.80;92.70
420;DHT22;42600;54.408;13.016;2022-10-17T03:12:38;10.80;92.70
420;DHT22;42600;54.408;13.016;2022-10-17T03:15:05;10.90;92.70
420;DHT22;42600;54.408;13.016;2022-10-17T03:17:32;10.90;92.70
420;DHT22;42600;54.408;13.016;2022-10-17T03:20:00;11.00;92.70
420;DHT22;42600;54.408;13.016;2022-10-17T03:22:27;11.00;92.70
420;DHT22;42600;54.408;13.016;2022-10-17T03:24:53;11.00;92.70
420;DHT22;42600;54.408;13.016;2022-10-17T03:27:20;11.00;92.70
420;DHT22;42600;54.408;13.016;2022-10-17T03:29:46;11.00;92.70
420;DHT22;42600;54.408;13.016;2022-10-17T03:32:13;11.00;92.70
420;DHT22;42600;54.408;13.016;2022-10-17T03:34:39;11.10;92.70
420;DHT22;42600;54.408;13.016;2022-10-17T03:37:07;11.10;92.70
420;DHT22;42600;54.408;13.016;2022-10-17T03:39:34;11.10;92.70
420;DHT22;42600;54.408;13.016;2022-10-17T03:42:00;11.00;92.70
420;DHT22;42600;54.408;13.016;2022-10-17T03:44:27;11.00;92.70
420;DHT22;42600;54.408;13.016;2022-10-17T03:46:53;11.00;92.70
420;DHT22;42600;54.408;13.016;2022-10-17T03:49:20;11.00;92.70
420;DHT22;42600;54.408;13.016;2022-10-17T03:51:46;11.00;92.70
420;DHT22;42600;54.408;13.016;2022-10-17T03:54:14;11.00;92.70
420;DHT22;42600;54.408;13.016;2022-10-17T03:56:41;11.00;92.70
420;DHT22;42600;54.408;13.016;2022-10-17T03:59:11;11.00;92.70
420;DHT22;42600;54.408;13.016;2022-10-17T04:01:38;11.00;92.70
420;DHT22;42600;54.408;13.016;2022-10-17T04:04:04;11.10;92.70
420;DHT22;42600;54.408;13.016;2022-10-17T04:06:31;11.10;92.70
420;DHT22;42600;54.408;13.016;2022-10-17T04:08:58;11.10;92.70
420;DHT22;42600;54.408;13.016;2022-10-17T04:11:26;11.10;92.70
420;DHT22;42600;54.408;13.016;2022-10-17T04:13:53;11.20;92.70
420;DHT22;42600;54.408;13.016;2022-10-17T04:16:20;11.20;92.70
420;DHT22;42600;54.408;13.016;2022-10-17T04:18:51;11.20;92.70
420;DHT22;42600;54.408;13.016;2022-10-17T04:21:18;11.30;92.70
420;DHT22;42600;54.408;13.016;2022-10-17T04:23:45;11.30;92.70
420;DHT22;42600;54.408;13.016;2022-10-17T04:26:11;11.40;92.70
420;DHT22;42600;54.408;13.016;2022-10-17T04:28:39;11.40;92.70
420;DHT22;42600;54.408;13.016;2022-10-17T04:31:08;11.40;92.70
420;DHT22;42600;54.408;13.016;2022-10-17T04:33:36;11.50;92.70
420;DHT22;42600;54.408;13.016;2022-10-17T04:36:05;11.50;92.70
420;DHT22;42600;54.408;13.016;2022-10-17T04:38:33;11.50;92.70
420;DHT22;42600;54.408;13.016;2022-10-17T04:41:00;11.60;92.70
420;DHT22;42600;54.408;13.016;2022-10-17T04:43:27;11.60;92.70
420;DHT22;42600;54.408;13.016;2022-10-17T04:45:57;11.60;92.70
420;DHT22;42600;54.408;13.016;2022-10-17T04:48:23;11.60;92.70
420;DHT22;42600;54.408;13.016;2022-10-17T04:50:53;11.60;92.70
420;DHT22;42600;54.408;13.016;2022-10-17T04:53:20;11.70;92.70
420;DHT22;42600;54.408;13.016;2022-10-17T04:55:47;11.70;92.70
420;DHT22;42600;54.408;13.016;2022-10-17T04:58:14;11.70;92.70
420;DHT22;42600;54.408;13.016;2022-10-17T05:00:41;11.70;92.70
420;DHT22;42600;54.408;13.016;2022-10-17T05:03:09;11.70;92.70
420;DHT22;42600;54.408;13.016;2022-10-17T05:05:36;11.70;92.70
420;DHT22;42600;54.408;13.016;2022-10-17T05:08:03;11.70;92.70
420;DHT22;42600;54.408;13.016;2022-10-17T05:10:30;11.70;92.70
420;DHT22;42600;54.408;13.016;2022-10-17T05:12:56;11.80;92.70
420;DHT22;42600;54.408;13.016;2022-10-17T05:15:23;11.80;92.70
420;DHT22;42600;54.408;13.016;2022-10-17T05:17:53;11.80;92.70
420;DHT22;42600;54.408;13.016;2022-10-17T05:20:21;11.80;92.70
420;DHT22;42600;54.408;13.016;2022-10-17T05:22:48;11.80;92.70
420;DHT22;42600;54.408;13.016;2022-10-17T05:25:14;11.80;92.70
420;DHT22;42600;54.408;13.016;2022-10-17T05:27:41;11.80;92.70
420;DHT22;42600;54.408;13.016;2022-10-17T05:30:08;11.80;92.70
420;DHT22;42600;54.408;13.016;2022-10-17T05:32:35;11.80;92.70
420;DHT22;42600;54.408;13.016;2022-10-17T05:35:03;11.80;92.70
420;DHT22;42600;54.408;13.016;2022-10-17T05:37:31;11.80;92.70
420;DHT22;42600;54.408;13.016;2022-10-17T05:39:57;11.80;92.70
420;DHT22;42600;54.408;13.016;2022-10-17T05:42:24;11.80;92.70
420;DHT22;42600;54.408;13.016;2022-10-17T05:44:51;11.80;92.70
420;DHT22;42600;54.408;13.016;2022-10-17T05:47:17;11.90;92.70
420;DHT22;42600;54.408;13.016;2022-10-17T05:49:44;11.90;92.70
420;DHT22;42600;54.408;13.016;2022-10-17T05:52:10;11.90;92.70
420;DHT22;42600;54.408;13.016;2022-10-17T05:54:38;11.90;92.70
420;DHT22;42600;54.408;13.016;2022-10-17T05:57:04;12.00;92.70
420;DHT22;42600;54.408;13.016;2022-10-17T05:59:31;12.00;92.70
420;DHT22;42600;54.408;13.016;2022-10-17T06:01:58;12.00;92.70
420;DHT22;42600;54.408;13.016;2022-10-17T06:04:24;12.00;92.70
420;DHT22;42600;54.408;13.016;2022-10-17T06:06:52;12.00;92.70
420;DHT22;42600;54.408;13.016;2022-10-17T06:09:20;12.00;92.70
420;DHT22;42600;54.408;13.016;2022-10-17T06:11:48;12.00;92.70
420;DHT22;42600;54.408;13.016;2022-10-17T06:14:15;12.00;92.70
420;DHT22;42600;54.408;13.016;2022-10-17T06:16:41;12.10;92.70
420;DHT22;42600;54.408;13.016;2022-10-17T06:19:08;12.10;92.70
420;DHT22;42600;54.408;13.016;2022-10-17T06:21:36;12.10;92.70
420;DHT22;42600;54.408;13.016;2022-10-17T06:24:03;12.10;92.70
420;DHT22;42600;54.408;13.016;2022-10-17T06:26:29;12.20;92.70
420;DHT22;42600;54.408;13.016;2022-10-17T06:28:57;12.20;92.70
420;DHT22;42600;54.408;13.016;2022-10-17T06:31:24;12.20;92.70
420;DHT22;42600;54.408;13.016;2022-10-17T06:33:50;12.20;92.70
420;DHT22;42600;54.408;13.016;2022-10-17T06:36:17;12.20;92.70
420;DHT22;42600;54.408;13.016;2022-10-17T06:38:43;12.20;92.70
420;DHT22;42600;54.408;13.016;2022-10-17T06:41:11;12.30;92.70
420;DHT22;42600;54.408;13.016;2022-10-17T06:43:40;12.30;92.70
420;DHT22;42600;54.408;13.016;2022-10-17T06:46:09;12.30;92.70
420;DHT22;42600;54.408;13.016;2022-10-17T06:48:35;12.30;92.70
420;DHT22;42600;54.408;13.016;2022-10-17T06:51:03;12.40;92.70
420;DHT22;42600;54.408;13.016;2022-10-17T06:53:32;12.40;92.70
420;DHT22;42600;54.408;13.016;2022-10-17T06:55:59;12.40;92.70
420;DHT22;42600;54.408;13.016;2022-10-17T06:58:27;12.50;92.70
420;DHT22;42600;54.408;13.016;2022-10-17T07:00:57;12.50;92.70
420;DHT22;42600;54.408;13.016;2022-10-17T07:03:26;12.50;92.70
420;DHT22;42600;54.408;13.016;2022-10-17T07:05:53;12.50;92.70
420;DHT22;42600;54.408;13.016;2022-10-17T07:08:20;12.50;92.70
420;DHT22;42600;54.408;13.016;2022-10-17T07:10:47;12.50;92.70
420;DHT22;42600;54.408;13.016;2022-10-17T07:13:14;12.60;92.70
420;DHT22;42600;54.408;13.016;2022-10-17T07:15:41;12.60;92.70
420;DHT22;42600;54.408;13.016;2022-10-17T07:18:07;12.60;92.70
420;DHT22;42600;54.408;13.016;2022-10-17T07:20:35;12.70;92.70
420;DHT22;42600;54.408;13.016;2022-10-17T07:23:02;12.70;92.70
420;DHT22;42600;54.408;13.016;2022-10-17T07:25:29;12.70;92.70
420;DHT22;42600;54.408;13.016;2022-10-17T07:27:55;12.80;92.70
420;DHT22;42600;54.408;13.016;2022-10-17T07:30:23;12.90;92.70
420;DHT22;42600;54.408;13.016;2022-10-17T07:32:51;13.10;92.70
420;DHT22;42600;54.408;13.016;2022-10-17T07:35:18;13.20;92.70
420;DHT22;42600;54.408;13.016;2022-10-17T07:37:47;13.30;92.70
420;DHT22;42600;54.408;13.016;2022-10-17T07:40:13;13.30;92.70
420;DHT22;42600;54.408;13.016;2022-10-17T07:42:40;13.30;92.70
420;DHT22;42600;54.408;13.016;2022-10-17T07:45:07;13.30;92.70
420;DHT22;42600;54.408;13.016;2022-10-17T07:47:34;13.30;92.70
420;DHT22;42600;54.408;13.016;2022-10-17T07:50:00;13.40;92.70
420;DHT22;42600;54.408;13.016;2022-10-17T07:52:27;13.40;92.70
420;DHT22;42600;54.408;13.016;2022-10-17T07:54:55;13.50;92.70
420;DHT22;42600;54.408;13.016;2022-10-17T07:57:21;13.60;92.70
420;DHT22;42600;54.408;13.016;2022-10-17T07:59:48;13.70;92.70
420;DHT22;42600;54.408;13.016;2022-10-17T08:02:20;13.80;92.70
420;DHT22;42600;54.408;13.016;2022-10-17T08:04:47;13.90;92.70
420;DHT22;42600;54.408;13.016;2022-10-17T08:07:14;14.00;92.70
420;DHT22;42600;54.408;13.016;2022-10-17T08:09:41;14.10;92.70
420;DHT22;42600;54.408;13.016;2022-10-17T08:12:09;14.10;92.70
420;DHT22;42600;54.408;13.016;2022-10-17T08:14:35;14.20;92.70
420;DHT22;42600;54.408;13.016;2022-10-17T08:17:03;14.30;92.70
420;DHT22;42600;54.408;13.016;2022-10-17T08:19:30;14.30;92.70
420;DHT22;42600;54.408;13.016;2022-10-17T08:21:56;14.40;92.70
420;DHT22;42600;54.408;13.016;2022-10-17T08:24:23;14.50;92.70
420;DHT22;42600;54.408;13.016;2022-10-17T08:26:50;14.50;92.70
420;DHT22;42600;54.408;13.016;2022-10-17T08:29:19;14.60;92.70
420;DHT22;42600;54.408;13.016;2022-10-17T08:31:45;14.70;92.70
420;DHT22;42600;54.408;13.016;2022-10-17T08:34:12;14.80;92.70
420;DHT22;42600;54.408;13.016;2022-10-17T08:36:40;14.80;92.70
420;DHT22;42600;54.408;13.016;2022-10-17T08:39:06;14.90;92.70
420;DHT22;42600;54.408;13.016;2022-10-17T08:41:45;14.90;92.70
420;DHT22;42600;54.408;13.016;2022-10-17T08:44:30;15.00;92.70
420;DHT22;42600;54.408;13.016;2022-10-17T08:47:03;15.10;92.70
420;DHT22;42600;54.408;13.016;2022-10-17T08:49:37;15.20;92.70
420;DHT22;42600;54.408;13.016;2022-10-17T08:52:16;15.20;92.70
420;DHT22;42600;54.408;13.016;2022-10-17T08:54:46;15.30;92.70
420;DHT22;42600;54.408;13.016;2022-10-17T08:57:15;15.50;92.70
420;DHT22;42600;54.408;13.016;2022-10-17T08:59:44;15.50;92.70
420;DHT22;42600;54.408;13.016;2022-10-17T09:02:33;15.60;92.70
420;DHT22;42600;54.408;13.016;2022-10-17T09:05:22;15.70;92.70
420;DHT22;42600;54.408;13.016;2022-10-17T09:07:55;15.80;92.40
420;DHT22;42600;54.408;13.016;2022-10-17T09:10:33;15.90;92.60
420;DHT22;42600;54.408;13.016;2022-10-17T09:13:14;15.90;92.10
420;DHT22;42600;54.408;13.016;2022-10-17T09:15:56;15.90;91.90
420;DHT22;42600;54.408;13.016;2022-10-17T09:18:28;15.90;91.30
420;DHT22;42600;54.408;13.016;2022-10-17T09:20:59;16.00;91.50
420;DHT22;42600;54.408;13.016;2022-10-17T09:23:31;16.00;91.50
420;DHT22;42600;54.408;13.016;2022-10-17T09:26:00;16.00;91.40
420;DHT22;42600;54.408;13.016;2022-10-17T09:28:29;16.00;91.60
420;DHT22;42600;54.408;13.016;2022-10-17T09:31:00;16.00;92.20
420;DHT22;42600;54.408;13.016;2022-10-17T09:33:29;16.00;92.10
420;DHT22;42600;54.408;13.016;2022-10-17T09:35:59;16.10;92.30
420;DHT22;42600;54.408;13.016;2022-10-17T09:38:33;16.20;92.40
420;DHT22;42600;54.408;13.016;2022-10-17T09:41:01;16.30;91.70
420;DHT22;42600;54.408;13.016;2022-10-17T09:43:28;16.40;91.90
420;DHT22;42600;54.408;13.016;2022-10-17T09:46:02;16.40;91.90
420;DHT22;42600;54.408;13.016;2022-10-17T09:48:34;16.40;92.10
420;DHT22;42600;54.408;13.016;2022-10-17T09:51:04;16.50;92.50
420;DHT22;42600;54.408;13.016;2022-10-17T09:53:34;16.60;91.90
420;DHT22;42600;54.408;13.016;2022-10-17T09:56:08;16.70;92.60
420;DHT22;42600;54.408;13.016;2022-10-17T09:58:40;16.70;92.70
420;DHT22;42600;54.408;13.016;2022-10-17T10:01:22;16.70;92.70
420;DHT22;42600;54.408;13.016;2022-10-17T10:04:08;16.70;92.70
420;DHT22;42600;54.408;13.016;2022-10-17T10:06:35;16.80;92.70
420;DHT22;42600;54.408;13.016;2022-10-17T10:09:02;16.90;92.70
420;DHT22;42600;54.408;13.016;2022-10-17T10:11:45;16.90;92.70
420;DHT22;42600;54.408;13.016;2022-10-17T10:14:19;17.00;92.70
420;DHT22;42600;54.408;13.016;2022-10-17T10:16:48;17.20;92.70
420;DHT22;42600;54.408;13.016;2022-10-17T10:19:20;17.20;92.70
420;DHT22;42600;54.408;13.016;2022-10-17T10:21:54;17.40;92.70
420;DHT22;42600;54.408;13.016;2022-10-17T10:24:21;17.60;92.70
420;DHT22;42600;54.408;13.016;2022-10-17T10:26:50;17.60;92.70
420;DHT22;42600;54.408;13.016;2022-10-17T10:29:25;17.60;92.70
420;DHT22;42600;54.408;13.016;2022-10-17T10:31:54;17.70;92.70
420;DHT22;42600;54.408;13.016;2022-10-17T10:34:25;17.80;92.70
420;DHT22;42600;54.408;13.016;2022-10-17T10:36:58;17.80;92.70
420;DHT22;42600;54.408;13.016;2022-10-17T10:39:33;17.90;92.70
420;DHT22;42600;54.408;13.016;2022-10-17T10:42:02;18.00;92.60
420;DHT22;42600;54.408;13.016;2022-10-17T10:44:31;18.00;92.30
420;DHT22;42600;54.408;13.016;2022-10-17T10:47:17;18.10;92.70
420;DHT22;42600;54.408;13.016;2022-10-17T10:49:45;18.10;92.70
420;DHT22;42600;54.408;13.016;2022-10-17T10:52:20;18.10;92.10
420;DHT22;42600;54.408;13.016;2022-10-17T10:54:54;18.20;92.70
420;DHT22;42600;54.408;13.016;2022-10-17T10:57:25;18.30;92.70
420;DHT22;42600;54.408;13.016;2022-10-17T10:59:58;18.40;92.70
420;DHT22;42600;54.408;13.016;2022-10-17T11:02:31;18.50;92.70
420;DHT22;42600;54.408;13.016;2022-10-17T11:05:02;18.50;92.70
420;DHT22;42600;54.408;13.016;2022-10-17T11:07:33;18.50;92.20
420;DHT22;42600;54.408;13.016;2022-10-17T11:10:09;18.60;92.60
420;DHT22;42600;54.408;13.016;2022-10-17T11:12:40;18.60;92.60
420;DHT22;42600;54.408;13.016;2022-10-17T11:15:17;18.60;92.00
420;DHT22;42600;54.408;13.016;2022-10-17T11:17:51;18.70;92.70
420;DHT22;42600;54.408;13.016;2022-10-17T11:20:24;18.80;92.70
420;DHT22;42600;54.408;13.016;2022-10-17T11:22:55;18.80;91.50
420;DHT22;42600;54.408;13.016;2022-10-17T11:25:33;18.90;92.30
420;DHT22;42600;54.408;13.016;2022-10-17T11:28:01;19.00;92.70
420;DHT22;42600;54.408;13.016;2022-10-17T11:30:35;19.10;92.10
420;DHT22;42600;54.408;13.016;2022-10-17T11:33:05;19.10;91.40
420;DHT22;42600;54.408;13.016;2022-10-17T11:35:34;19.10;92.00
420;DHT22;42600;54.408;13.016;2022-10-17T11:38:07;19.20;92.50
420;DHT22;42600;54.408;13.016;2022-10-17T11:40:39;19.20;90.90
420;DHT22;42600;54.408;13.016;2022-10-17T11:43:11;19.20;90.90
420;DHT22;42600;54.408;13.016;2022-10-17T11:45:41;19.30;92.30
420;DHT22;42600;54.408;13.016;2022-10-17T11:48:15;19.40;92.00
420;DHT22;42600;54.408;13.016;2022-10-17T11:50:45;19.40;91.80
420;DHT22;42600;54.408;13.016;2022-10-17T11:53:16;19.50;92.30
420;DHT22;42600;54.408;13.016;2022-10-17T11:55:44;19.60;92.30
420;DHT22;42600;54.408;13.016;2022-10-17T11:58:25;19.60;92.00
420;DHT22;42600;54.408;13.016;2022-10-17T12:01:03;19.70;92.10
420;DHT22;42600;54.408;13.016;2022-10-17T12:03:42;19.70;91.50
420;DHT22;42600;54.408;13.016;2022-10-17T12:06:16;19.80;91.70
420;DHT22;42600;54.408;13.016;2022-10-17T12:08:51;19.80;91.30
420;DHT22;42600;54.408;13.016;2022-10-17T12:11:29;19.80;91.20
420;DHT22;42600;54.408;13.016;2022-10-17T12:13:59;19.90;91.10
420;DHT22;42600;54.408;13.016;2022-10-17T12:16:47;19.80;91.30
420;DHT22;42600;54.408;13.016;2022-10-17T12:19:32;19.90;91.40
420;DHT22;42600;54.408;13.016;2022-10-17T12:22:11;20.00;91.70
420;DHT22;42600;54.408;13.016;2022-10-17T12:24:44;20.10;91.40
420;DHT22;42600;54.408;13.016;2022-10-17T12:27:31;20.10;90.70
420;DHT22;42600;54.408;13.016;2022-10-17T12:29:59;20.20;90.90
420;DHT22;42600;54.408;13.016;2022-10-17T12:32:26;20.20;91.10
420;DHT22;42600;54.408;13.016;2022-10-17T12:34:55;20.30;90.60
420;DHT22;42600;54.408;13.016;2022-10-17T12:38:18;20.30;90.20
420;DHT22;42600;54.408;13.016;2022-10-17T12:40:52;20.40;91.30
420;DHT22;42600;54.408;13.016;2022-10-17T12:46:45;20.50;91.10
420;DHT22;42600;54.408;13.016;2022-10-17T12:49:41;20.60;90.50
420;DHT22;42600;54.408;13.016;2022-10-17T12:52:23;20.70;90.50
420;DHT22;42600;54.408;13.016;2022-10-17T12:54:54;20.80;90.70
420;DHT22;42600;54.408;13.016;2022-10-17T12:57:26;20.80;88.70
420;DHT22;42600;54.408;13.016;2022-10-17T12:59:55;20.80;89.90
420;DHT22;42600;54.408;13.016;2022-10-17T13:02:25;20.80;90.10
420;DHT22;42600;54.408;13.016;2022-10-17T13:04:57;20.90;89.60
420;DHT22;42600;54.408;13.016;2022-10-17T13:07:27;20.90;89.20
420;DHT22;42600;54.408;13.016;2022-10-17T13:09:54;20.90;88.80
420;DHT22;42600;54.408;13.016;2022-10-17T13:12:23;20.90;88.70
420;DHT22;42600;54.408;13.016;2022-10-17T13:14:53;20.90;88.60
420;DHT22;42600;54.408;13.016;2022-10-17T13:17:23;20.80;89.20
420;DHT22;42600;54.408;13.016;2022-10-17T13:19:50;20.80;88.80
420;DHT22;42600;54.408;13.016;2022-10-17T13:22:18;20.90;89.30
420;DHT22;42600;54.408;13.016;2022-10-17T13:24:47;20.90;88.60
420;DHT22;42600;54.408;13.016;2022-10-17T13:27:26;20.90;88.90
420;DHT22;42600;54.408;13.016;2022-10-17T13:29:53;21.00;88.60
420;DHT22;42600;54.408;13.016;2022-10-17T13:32:22;21.10;88.80
420;DHT22;42600;54.408;13.016;2022-10-17T13:35:04;21.10;88.70
420;DHT22;42600;54.408;13.016;2022-10-17T13:37:33;21.10;88.30
420;DHT22;42600;54.408;13.016;2022-10-17T13:40:02;21.10;88.60
420;DHT22;42600;54.408;13.016;2022-10-17T13:42:35;21.10;88.50
420;DHT22;42600;54.408;13.016;2022-10-17T13:45:12;21.10;88.30
420;DHT22;42600;54.408;13.016;2022-10-17T13:47:41;21.10;88.00
420;DHT22;42600;54.408;13.016;2022-10-17T13:50:18;21.00;88.40
420;DHT22;42600;54.408;13.016;2022-10-17T13:52:45;21.00;88.80
420;DHT22;42600;54.408;13.016;2022-10-17T13:55:15;21.00;88.60
420;DHT22;42600;54.408;13.016;2022-10-17T13:57:44;21.00;88.90
420;DHT22;42600;54.408;13.016;2022-10-17T14:00:17;20.90;88.70
420;DHT22;42600;54.408;13.016;2022-10-17T14:02:44;20.90;89.20
420;DHT22;42600;54.408;13.016;2022-10-17T14:05:12;20.90;89.30
420;DHT22;42600;54.408;13.016;2022-10-17T14:07:42;20.80;89.40
420;DHT22;42600;54.408;13.016;2022-10-17T14:10:20;20.80;90.00
420;DHT22;42600;54.408;13.016;2022-10-17T14:12:47;20.80;89.60
420;DHT22;42600;54.408;13.016;2022-10-17T14:15:15;20.80;89.60
420;DHT22;42600;54.408;13.016;2022-10-17T14:17:42;20.80;90.00
420;DHT22;42600;54.408;13.016;2022-10-17T14:20:16;20.70;89.80
420;DHT22;42600;54.408;13.016;2022-10-17T14:22:43;20.70;90.00
420;DHT22;42600;54.408;13.016;2022-10-17T14:28:13;20.70;89.90
420;DHT22;42600;54.408;13.016;2022-10-17T14:30:41;20.70;90.00
420;DHT22;42600;54.408;13.016;2022-10-17T14:33:14;20.70;90.10
420;DHT22;42600;54.408;13.016;2022-10-17T14:35:48;20.70;90.10
420;DHT22;42600;54.408;13.016;2022-10-17T14:38:17;20.70;90.10
420;DHT22;42600;54.408;13.016;2022-10-17T14:40:49;20.70;90.00
420;DHT22;42600;54.408;13.016;2022-10-17T14:43:20;20.70;90.10
420;DHT22;42600;54.408;13.016;2022-10-17T14:45:48;20.70;90.20
420;DHT22;42600;54.408;13.016;2022-10-17T14:48:20;20.70;90.20
420;DHT22;42600;54.408;13.016;2022-10-17T14:51:06;20.70;90.20
420;DHT22;42600;54.408;13.016;2022-10-17T14:53:33;20.70;90.10
420;DHT22;42600;54.408;13.016;2022-10-17T14:56:02;20.60;90.20
420;DHT22;42600;54.408;13.016;2022-10-17T14:58:32;20.60;90.30
420;DHT22;42600;54.408;13.016;2022-10-17T15:01:00;20.60;90.20
420;DHT22;42600;54.408;13.016;2022-10-17T15:03:27;20.60;90.30
420;DHT22;42600;54.408;13.016;2022-10-17T15:05:54;20.60;90.40
420;DHT22;42600;54.408;13.016;2022-10-17T15:08:22;20.50;90.50
420;DHT22;42600;54.408;13.016;2022-10-17T15:10:49;20.50;90.70
420;DHT22;42600;54.408;13.016;2022-10-17T15:13:17;20.50;90.80
420;DHT22;42600;54.408;13.016;2022-10-17T15:15:45;20.40;91.00
420;DHT22;42600;54.408;13.016;2022-10-17T15:18:15;20.40;91.10
420;DHT22;42600;54.408;13.016;2022-10-17T15:20:42;20.40;91.20
420;DHT22;42600;54.408;13.016;2022-10-17T15:23:08;20.30;91.30
420;DHT22;42600;54.408;13.016;2022-10-17T15:25:35;20.30;91.40
420;DHT22;42600;54.408;13.016;2022-10-17T15:28:01;20.30;91.90
420;DHT22;42600;54.408;13.016;2022-10-17T15:30:30;20.20;91.90
420;DHT22;42600;54.408;13.016;2022-10-17T15:32:58;20.20;91.90
420;DHT22;42600;54.408;13.016;2022-10-17T15:35:26;20.20;92.10
420;DHT22;42600;54.408;13.016;2022-10-17T15:37:53;20.10;92.50
420;DHT22;42600;54.408;13.016;2022-10-17T15:40:21;20.10;92.40
420;DHT22;42600;54.408;13.016;2022-10-17T15:42:48;20.10;92.40
420;DHT22;42600;54.408;13.016;2022-10-17T15:45:16;20.10;92.30
420;DHT22;42600;54.408;13.016;2022-10-17T15:47:48;20.00;92.20
420;DHT22;42600;54.408;13.016;2022-10-17T15:50:17;20.00;92.40
420;DHT22;42600;54.408;13.016;2022-10-17T15:52:43;20.00;92.50
420;DHT22;42600;54.408;13.016;2022-10-17T15:55:11;20.00;92.50
420;DHT22;42600;54.408;13.016;2022-10-17T15:57:40;20.00;92.60
420;DHT22;42600;54.408;13.016;2022-10-17T16:00:14;19.90;92.70
420;DHT22;42600;54.408;13.016;2022-10-17T16:02:41;19.80;92.70
420;DHT22;42600;54.408;13.016;2022-10-17T16:05:12;19.80;92.70
420;DHT22;42600;54.408;13.016;2022-10-17T16:07:40;19.60;92.70
420;DHT22;42600;54.408;13.016;2022-10-17T16:10:07;19.40;92.70